Time;durP1;ratioP1;P1;durP2;ratioP2;P2;SDS_P1;SDS_P2;PMS_P1;PMS_P2;Temp;Humidity;BMP_temperature;BMP_pressure;BME280_temperature;BME280_humidity;BME280_pressure;Samples;Min_cycle;Max_cycle;Signal;HPM_P1;HPM_P2
2022/10/16 00:00:43;;;;;;;37.83;19.13;;;6.80;99.90;;;;;;4213776;28;20434;-63
2022/10/16 00:02:44;;;;;;;39.00;20.10;;;6.80;99.90;;;;;;4213309;28;20802;-64
2022/10/16 00:04:45;;;;;;;40.07;21.63;;;6.70;99.90;;;;;;4209944;28;20040;-63
2022/10/16 00:06:46;;;;;;;34.90;19.90;;;6.70;99.90;;;;;;4196648;28;20090;-62
2022/10/16 00:08:48;;;;;;;35.80;18.83;;;6.70;99.90;;;;;;4197777;28;20098;-63
2022/10/16 00:10:49;;;;;;;36.67;20.80;;;6.70;99.90;;;;;;4196953;28;20082;-62
2022/10/16 00:12:50;;;;;;;39.73;20.80;;;6.70;99.90;;;;;;4196774;28;20033;-63
2022/10/16 00:14:51;;;;;;;38.17;19.70;;;6.70;99.90;;;;;;4196346;28;20036;-62
2022/10/16 00:16:52;;;;;;;35.87;20.47;;;6.70;99.90;;;;;;4196449;28;20029;-63
2022/10/16 00:18:54;;;;;;;36.43;20.63;;;6.60;99.90;;;;;;4196641;28;20036;-63
2022/10/16 00:21:00;;;;;;;37.00;20.73;;;6.60;99.90;;;;;;4195888;28;20056;-63
2022/10/16 00:23:03;;;;;;;36.73;20.30;;;6.60;99.90;;;;;;4196255;28;20095;-62
2022/10/16 00:25:04;;;;;;;34.50;19.20;;;6.60;99.90;;;;;;4196143;28;20074;-62
2022/10/16 00:27:05;;;;;;;34.90;20.80;;;6.50;99.90;;;;;;4197273;28;20070;-62
2022/10/16 00:29:06;;;;;;;44.70;20.57;;;6.50;99.90;;;;;;4196091;28;20078;-62
2022/10/16 00:31:10;;;;;;;35.50;18.93;;;6.50;99.90;;;;;;4197288;28;20052;-63
2022/10/16 00:33:11;;;;;;;33.27;18.57;;;6.40;99.90;;;;;;4204523;28;20081;-62
2022/10/16 00:35:12;;;;;;;29.90;17.90;;;6.40;99.90;;;;;;4206484;28;20036;-62
2022/10/16 00:37:14;;;;;;;29.60;17.23;;;6.30;99.90;;;;;;4196349;28;20059;-63
2022/10/16 00:39:15;;;;;;;32.10;17.13;;;6.30;99.90;;;;;;4196931;28;20553;-62
2022/10/16 00:41:17;;;;;;;32.30;16.93;;;6.30;99.90;;;;;;4196059;28;20083;-64
2022/10/16 00:43:39;;;;;;;32.50;17.03;;;6.30;99.90;;;;;;4196503;28;20085;-62
2022/10/16 00:45:41;;;;;;;33.43;17.13;;;6.30;99.90;;;;;;4205971;28;20492;-62
2022/10/16 00:47:48;;;;;;;28.10;17.03;;;6.30;99.90;;;;;;4213451;28;20032;-62
2022/10/16 00:49:53;;;;;;;27.10;16.83;;;6.30;99.90;;;;;;4213028;28;20024;-62
2022/10/16 00:51:54;;;;;;;34.80;17.60;;;6.30;99.90;;;;;;4183889;28;20090;-63
2022/10/16 00:53:56;;;;;;;32.30;17.33;;;6.20;99.90;;;;;;4196327;28;20825;-61
2022/10/16 00:55:58;;;;;;;33.20;17.73;;;6.30;99.90;;;;;;4196013;28;20074;-63
2022/10/16 00:57:59;;;;;;;31.00;17.30;;;6.20;99.90;;;;;;4165036;28;20045;-62
2022/10/16 01:00:03;;;;;;;31.40;17.53;;;6.20;99.90;;;;;;4207647;28;20097;-62
2022/10/16 01:02:07;;;;;;;33.07;18.00;;;6.30;99.90;;;;;;4213533;28;20040;-62
2022/10/16 01:04:08;;;;;;;27.47;16.67;;;6.20;99.90;;;;;;4211570;28;20044;-62
2022/10/16 01:06:19;;;;;;;29.50;17.03;;;6.20;99.90;;;;;;4213505;28;20096;-62
2022/10/16 01:08:35;;;;;;;28.60;17.53;;;6.20;99.90;;;;;;4193412;28;20048;-62
2022/10/16 01:11:02;;;;;;;26.40;15.77;;;6.20;99.90;;;;;;4212769;28;20141;-62
2022/10/16 01:13:06;;;;;;;27.57;17.03;;;6.20;99.90;;;;;;4211124;28;20035;-62
2022/10/16 01:15:08;;;;;;;36.40;18.63;;;6.20;99.90;;;;;;4213235;28;20077;-63
2022/10/16 01:17:20;;;;;;;30.00;17.83;;;6.10;99.90;;;;;;4205440;28;20029;-62
2022/10/16 01:19:52;;;;;;;30.63;17.23;;;6.00;99.90;;;;;;4195776;28;20478;-62
2022/10/16 01:21:55;;;;;;;21.93;12.57;;;5.90;99.90;;;;;;4195556;28;20476;-62
2022/10/16 01:24:32;;;;;;;20.70;12.77;;;5.80;99.90;;;;;;4212801;28;20039;-62
2022/10/16 01:27:01;;;;;;;20.53;11.93;;;5.70;99.90;;;;;;4211745;28;20093;-63
2022/10/16 01:29:10;;;;;;;22.33;13.47;;;5.60;99.90;;;;;;4211882;28;20372;-62
2022/10/16 01:31:17;;;;;;;20.57;13.07;;;5.60;99.90;;;;;;4210052;28;20356;-61
2022/10/16 01:33:27;;;;;;;17.23;11.73;;;5.50;99.90;;;;;;4211334;28;20311;-62
2022/10/16 01:35:41;;;;;;;29.02;10.02;;;5.60;99.90;;;;;;4211505;28;20066;-61
2022/10/16 01:38:28;;;;;;;20.90;12.63;;;5.50;99.90;;;;;;4211911;28;20028;-63
2022/10/16 01:40:32;;;;;;;68.07;11.90;;;5.50;99.90;;;;;;4199458;28;20060;-63
2022/10/16 01:42:37;;;;;;;17.60;9.43;;;5.40;99.90;;;;;;4211628;28;20032;-62
2022/10/16 01:44:40;;;;;;;15.70;10.13;;;5.30;99.90;;;;;;4212837;28;20028;-62
2022/10/16 01:46:45;;;;;;;14.30;9.63;;;5.30;99.90;;;;;;4211351;28;20048;-63
2022/10/16 01:48:49;;;;;;;17.60;11.23;;;5.20;99.90;;;;;;4208150;28;20036;-63
2022/10/16 01:51:27;;;;;;;21.53;12.20;;;5.10;99.90;;;;;;4194890;28;20460;-62
2022/10/16 01:53:29;;;;;;;20.70;12.20;;;4.90;99.90;;;;;;4128496;28;20088;-62
2022/10/16 01:55:35;;;;;;;22.10;13.47;;;4.80;99.90;;;;;;4165056;28;20056;-62
2022/10/16 01:57:39;;;;;;;22.63;13.20;;;4.70;99.90;;;;;;4195414;28;20075;-62
2022/10/16 01:59:46;;;;;;;21.83;14.33;;;4.70;99.90;;;;;;4194764;28;20040;-65
2022/10/16 02:01:54;;;;;;;25.87;16.07;;;4.60;99.90;;;;;;4196281;28;20044;-62
2022/10/16 02:03:59;;;;;;;25.87;15.60;;;4.60;99.90;;;;;;4193898;28;20036;-62
2022/10/16 02:06:00;;;;;;;24.93;15.57;;;4.60;99.90;;;;;;4195853;28;20067;-62
2022/10/16 02:08:02;;;;;;;24.00;14.87;;;4.70;99.90;;;;;;4194553;28;20029;-66
2022/10/16 02:10:03;;;;;;;26.10;15.30;;;4.60;99.90;;;;;;4195562;28;20361;-66
2022/10/16 02:12:19;;;;;;;24.47;15.60;;;4.60;99.90;;;;;;4194758;28;20221;-64
2022/10/16 02:14:21;;;;;;;22.53;14.87;;;4.50;99.90;;;;;;4203085;28;20024;-64
2022/10/16 02:16:34;;;;;;;24.70;15.83;;;4.40;99.90;;;;;;4211484;28;20069;-62
2022/10/16 02:18:35;;;;;;;27.80;16.77;;;4.40;99.90;;;;;;4212012;28;20058;-62
2022/10/16 02:20:48;;;;;;;32.10;16.17;;;4.30;99.90;;;;;;4211529;28;20044;-63
2022/10/16 02:22:51;;;;;;;45.90;17.93;;;4.30;99.90;;;;;;4211662;28;20464;-63
2022/10/16 02:25:08;;;;;;;26.57;16.43;;;4.20;99.90;;;;;;4211655;28;20298;-62
2022/10/16 02:27:32;;;;;;;84.20;18.40;;;4.10;99.90;;;;;;4211791;28;20053;-62
2022/10/16 02:29:39;;;;;;;90.97;17.03;;;4.00;99.90;;;;;;4211085;28;20249;-62
2022/10/16 02:31:47;;;;;;;40.43;16.53;;;3.90;99.90;;;;;;4212469;28;20310;-62
2022/10/16 02:33:50;;;;;;;30.50;17.20;;;3.90;99.90;;;;;;4211095;28;20801;-62
2022/10/16 02:35:52;;;;;;;46.43;18.63;;;3.90;99.90;;;;;;4211756;28;20245;-63
2022/10/16 02:37:55;;;;;;;29.20;18.00;;;3.90;99.90;;;;;;4211251;28;20089;-61
2022/10/16 02:39:58;;;;;;;43.00;18.93;;;3.80;99.90;;;;;;4211244;28;20318;-61
2022/10/16 02:41:59;;;;;;;62.83;19.63;;;3.80;99.90;;;;;;4205728;28;20343;-62
2022/10/16 02:44:00;;;;;;;67.90;19.10;;;3.70;99.90;;;;;;4199917;28;20276;-62
2022/10/16 02:46:01;;;;;;;32.90;19.57;;;3.70;99.90;;;;;;4188695;28;20270;-61
2022/10/16 02:48:03;;;;;;;64.53;19.83;;;3.70;99.90;;;;;;4194042;28;20807;-62
2022/10/16 02:50:04;;;;;;;102.43;22.63;;;3.70;99.90;;;;;;4195282;28;20798;-62
2022/10/16 02:52:05;;;;;;;84.03;21.13;;;3.70;99.90;;;;;;4193921;28;20311;-63
2022/10/16 02:54:07;;;;;;;84.07;21.53;;;3.60;99.90;;;;;;4195185;28;20330;-63
2022/10/16 02:56:08;;;;;;;26.83;18.00;;;3.50;99.90;;;;;;4193750;28;20269;-62
2022/10/16 02:58:09;;;;;;;33.73;18.57;;;3.50;99.90;;;;;;4194814;28;20295;-62
2022/10/16 03:00:14;;;;;;;29.83;17.90;;;3.60;99.90;;;;;;4193793;28;20277;-61
2022/10/16 03:02:15;;;;;;;31.23;19.07;;;3.60;99.90;;;;;;4195256;28;20269;-62
2022/10/16 03:04:16;;;;;;;30.93;18.97;;;3.70;99.90;;;;;;4193349;28;20261;-62
2022/10/16 03:06:17;;;;;;;30.30;18.17;;;3.80;99.90;;;;;;4194700;28;20331;-63
2022/10/16 03:08:23;;;;;;;30.00;18.50;;;3.80;99.90;;;;;;4192744;28;20261;-61
2022/10/16 03:10:24;;;;;;;32.57;17.47;;;3.90;99.90;;;;;;4194552;28;21102;-62
2022/10/16 03:12:27;;;;;;;24.43;17.40;;;3.90;99.90;;;;;;4194077;28;20334;-62
2022/10/16 03:14:29;;;;;;;30.50;17.80;;;3.90;99.90;;;;;;4200536;28;20307;-61
2022/10/16 03:16:30;;;;;;;29.30;17.50;;;3.90;99.90;;;;;;4211234;28;20716;-62
2022/10/16 03:18:31;;;;;;;31.13;18.77;;;3.90;99.90;;;;;;4210474;28;20326;-63
2022/10/16 03:20:32;;;;;;;30.60;17.93;;;3.80;99.90;;;;;;4211365;28;20342;-62
2022/10/16 03:22:34;;;;;;;25.57;16.90;;;3.80;99.90;;;;;;4209268;28;20307;-61
2022/10/16 03:24:35;;;;;;;29.57;18.63;;;3.80;99.90;;;;;;4211417;28;20338;-61
2022/10/16 03:26:36;;;;;;;30.17;17.80;;;3.70;99.90;;;;;;4210402;28;20269;-62
2022/10/16 03:28:37;;;;;;;32.87;18.07;;;3.70;99.90;;;;;;4211355;28;20326;-61
2022/10/16 03:30:39;;;;;;;31.67;18.77;;;3.60;99.90;;;;;;4209474;28;20272;-62
2022/10/16 03:32:40;;;;;;;32.47;19.53;;;3.60;99.90;;;;;;4211634;28;20732;-62
2022/10/16 03:34:41;;;;;;;38.97;21.23;;;3.60;99.90;;;;;;4210898;28;20295;-61
2022/10/16 03:36:42;;;;;;;30.43;18.50;;;3.50;99.90;;;;;;4214937;28;20264;-62
2022/10/16 03:38:44;;;;;;;31.23;18.73;;;3.50;99.90;;;;;;4213477;28;20338;-62
2022/10/16 03:40:45;;;;;;;27.53;17.50;;;3.50;99.90;;;;;;4214179;28;20280;-62
2022/10/16 03:42:46;;;;;;;30.53;18.00;;;3.50;99.90;;;;;;4200806;28;20817;-61
2022/10/16 03:44:47;;;;;;;45.10;18.60;;;3.50;99.90;;;;;;4179268;28;20304;-61
2022/10/16 03:46:48;;;;;;;74.43;19.80;;;3.50;99.90;;;;;;4197397;28;20311;-62
2022/10/16 03:48:49;;;;;;;49.37;18.60;;;3.40;99.90;;;;;;4196349;28;20266;-62
2022/10/16 03:50:51;;;;;;;45.83;17.63;;;3.30;99.90;;;;;;4197678;28;20818;-62
2022/10/16 03:52:52;;;;;;;56.53;17.23;;;3.20;99.90;;;;;;4197703;28;20334;-62
2022/10/16 03:54:53;;;;;;;31.23;16.70;;;3.20;99.90;;;;;;4197714;28;20266;-62
2022/10/16 03:56:54;;;;;;;68.67;17.93;;;3.20;99.90;;;;;;4196471;28;20277;-63
2022/10/16 03:58:55;;;;;;;26.77;13.53;;;3.20;99.90;;;;;;4196833;28;20277;-62
2022/10/16 04:00:57;;;;;;;26.63;16.10;;;3.20;99.90;;;;;;4196868;28;20293;-61
2022/10/16 04:02:58;;;;;;;24.70;15.13;;;3.10;99.90;;;;;;4197815;28;20323;-62
2022/10/16 04:04:59;;;;;;;22.97;15.03;;;3.20;99.90;;;;;;4196375;28;20672;-61
2022/10/16 04:07:00;;;;;;;23.37;15.03;;;3.20;99.90;;;;;;4197707;28;20266;-62
2022/10/16 04:09:02;;;;;;;20.50;14.20;;;3.20;99.90;;;;;;4196013;28;20292;-62
2022/10/16 04:11:03;;;;;;;20.33;13.53;;;3.30;99.90;;;;;;4201468;28;20323;-63
2022/10/16 04:13:04;;;;;;;22.13;14.40;;;3.40;99.90;;;;;;4196205;28;20308;-61
2022/10/16 04:15:06;;;;;;;30.40;17.70;;;3.30;99.90;;;;;;4196887;28;20308;-63
2022/10/16 04:17:07;;;;;;;33.10;18.33;;;3.40;99.90;;;;;;4196808;28;20307;-63
2022/10/16 04:19:09;;;;;;;34.03;18.50;;;3.30;99.90;;;;;;4196357;28;20606;-61
2022/10/16 04:21:11;;;;;;;26.30;16.10;;;3.20;99.90;;;;;;4198227;28;20301;-64
2022/10/16 04:23:12;;;;;;;27.63;15.53;;;3.20;99.90;;;;;;4196198;28;20691;-62
2022/10/16 04:25:13;;;;;;;27.77;16.00;;;3.20;99.90;;;;;;4197292;28;20262;-63
2022/10/16 04:27:14;;;;;;;31.93;18.07;;;3.20;99.90;;;;;;4195924;28;20277;-62
2022/10/16 04:29:15;;;;;;;29.07;18.03;;;3.20;99.90;;;;;;4197177;28;20331;-62
2022/10/16 04:31:16;;;;;;;36.73;20.27;;;3.20;99.90;;;;;;4196951;28;20303;-63
2022/10/16 04:33:17;;;;;;;32.23;19.07;;;3.20;99.90;;;;;;4213922;28;20343;-61
2022/10/16 04:35:20;;;;;;;30.60;17.73;;;3.20;99.90;;;;;;4212826;28;20268;-62
2022/10/16 04:37:25;;;;;;;29.37;17.13;;;3.20;99.90;;;;;;4213875;28;20269;-61
2022/10/16 04:39:26;;;;;;;22.80;14.27;;;3.30;99.90;;;;;;4212824;28;20314;-62
2022/10/16 04:41:27;;;;;;;21.73;14.57;;;3.30;99.90;;;;;;4211886;28;20292;-61
2022/10/16 04:43:28;;;;;;;25.83;16.33;;;3.40;99.90;;;;;;4195965;28;20311;-62
2022/10/16 04:45:30;;;;;;;31.60;18.17;;;3.40;99.90;;;;;;4197808;28;20296;-62
2022/10/16 04:47:31;;;;;;;30.43;17.37;;;3.40;99.90;;;;;;4212978;28;20281;-61
2022/10/16 04:49:32;;;;;;;29.20;17.20;;;3.50;99.90;;;;;;4212916;28;20683;-61
2022/10/16 04:51:33;;;;;;;33.97;19.07;;;3.40;99.90;;;;;;4213314;28;20264;-61
2022/10/16 04:53:34;;;;;;;34.80;17.87;;;3.40;99.90;;;;;;4211678;28;20353;-63
2022/10/16 04:55:36;;;;;;;34.30;17.53;;;3.40;99.90;;;;;;4213560;28;20268;-61
2022/10/16 04:57:37;;;;;;;42.03;18.80;;;3.50;99.90;;;;;;4212108;28;20289;-61
2022/10/16 04:59:39;;;;;;;39.80;20.93;;;3.50;99.90;;;;;;4194804;28;20343;-61
2022/10/16 05:01:41;;;;;;;37.03;19.20;;;3.50;99.90;;;;;;4212618;28;20342;-62
2022/10/16 05:03:42;;;;;;;37.33;18.47;;;3.50;99.90;;;;;;4213464;28;20326;-62
2022/10/16 05:05:44;;;;;;;60.70;23.90;;;3.50;99.90;;;;;;4193713;28;20323;-62
2022/10/16 05:07:47;;;;;;;46.80;21.17;;;3.50;99.90;;;;;;4212856;28;20269;-60
2022/10/16 05:09:48;;;;;;;42.43;20.73;;;3.50;99.90;;;;;;4212156;28;20272;-62
2022/10/16 05:11:49;;;;;;;46.80;21.77;;;3.50;99.90;;;;;;4199776;28;20273;-61
2022/10/16 05:13:50;;;;;;;51.77;22.00;;;3.60;99.90;;;;;;4199612;28;20272;-61
2022/10/16 05:15:51;;;;;;;103.37;24.00;;;3.50;99.90;;;;;;4199412;28;20310;-64
2022/10/16 05:17:54;;;;;;;63.70;22.97;;;3.50;99.90;;;;;;4195753;28;20262;-61
2022/10/16 05:19:55;;;;;;;138.33;24.83;;;3.50;99.90;;;;;;4195742;28;20327;-60
2022/10/16 05:21:56;;;;;;;194.47;25.23;;;3.40;99.90;;;;;;4195717;28;20781;-61
2022/10/16 05:23:57;;;;;;;204.20;25.47;;;3.40;99.90;;;;;;4210426;28;20829;-62
2022/10/16 05:25:59;;;;;;;167.57;23.00;;;3.30;99.90;;;;;;4212130;28;20257;-62
2022/10/16 05:28:00;;;;;;;140.90;24.70;;;3.30;99.90;;;;;;4211443;28;20265;-62
2022/10/16 05:30:03;;;;;;;167.90;23.23;;;3.30;99.90;;;;;;4211821;28;20268;-61
2022/10/16 05:32:04;;;;;;;238.00;25.63;;;3.30;99.90;;;;;;4211715;28;20322;-61
2022/10/16 05:34:05;;;;;;;98.60;21.20;;;3.40;99.90;;;;;;4212644;28;20261;-61
2022/10/16 05:36:08;;;;;;;341.93;33.90;;;3.40;99.90;;;;;;4211372;28;20329;-61
2022/10/16 05:38:10;;;;;;;92.40;24.07;;;3.40;99.90;;;;;;4197851;28;20303;-62
2022/10/16 05:40:12;;;;;;;56.27;21.73;;;3.40;99.90;;;;;;4193732;28;20684;-61
2022/10/16 05:42:14;;;;;;;77.40;25.87;;;3.50;99.90;;;;;;4195849;28;20293;-63
2022/10/16 05:44:15;;;;;;;77.10;27.60;;;3.60;99.90;;;;;;4194957;28;20269;-62
2022/10/16 05:46:17;;;;;;;130.77;30.20;;;3.60;99.90;;;;;;4195655;28;21066;-62
2022/10/16 05:48:18;;;;;;;102.37;27.33;;;3.60;99.90;;;;;;4202361;28;20302;-62
2022/10/16 05:50:19;;;;;;;139.57;28.80;;;3.60;99.90;;;;;;4212148;28;20272;-61
2022/10/16 05:52:20;;;;;;;227.17;37.47;;;3.60;99.90;;;;;;4211890;28;20729;-62
2022/10/16 05:54:21;;;;;;;292.00;40.17;;;3.60;99.90;;;;;;4210528;28;20351;-61
2022/10/16 05:56:22;;;;;;;98.37;32.83;;;3.50;99.90;;;;;;4211569;28;20276;-62
2022/10/16 05:58:24;;;;;;;123.30;31.17;;;3.50;99.90;;;;;;4210159;28;20284;-63
2022/10/16 06:00:25;;;;;;;102.73;31.73;;;3.60;99.90;;;;;;4212615;28;20265;-62
2022/10/16 06:02:27;;;;;;;180.47;34.87;;;3.70;99.90;;;;;;4211357;28;20296;-63
2022/10/16 06:04:28;;;;;;;119.07;34.20;;;3.70;99.90;;;;;;4211453;28;20298;-62
2022/10/16 06:06:30;;;;;;;89.70;32.33;;;3.80;99.90;;;;;;4210530;28;20322;-62
2022/10/16 06:08:31;;;;;;;68.73;31.00;;;3.90;99.90;;;;;;4212344;28;20345;-64
2022/10/16 06:10:32;;;;;;;73.67;32.17;;;4.00;99.90;;;;;;4207568;28;20788;-62
2022/10/16 06:12:34;;;;;;;68.43;31.30;;;4.20;99.90;;;;;;4195536;28;20253;-62
2022/10/16 06:14:35;;;;;;;69.67;31.10;;;4.30;99.90;;;;;;4193573;28;20299;-66
2022/10/16 06:16:37;;;;;;;67.50;29.37;;;4.40;99.90;;;;;;4194527;28;20269;-62
2022/10/16 06:18:38;;;;;;;61.10;28.73;;;4.50;99.90;;;;;;4204363;28;20333;-62
2022/10/16 06:20:40;;;;;;;67.60;32.40;;;4.60;99.90;;;;;;4211560;28;20285;-63
2022/10/16 06:22:41;;;;;;;78.07;33.93;;;4.70;99.90;;;;;;4210564;28;20300;-66
2022/10/16 06:24:42;;;;;;;78.40;31.03;;;4.80;99.90;;;;;;4210904;28;20821;-62
2022/10/16 06:26:43;;;;;;;81.83;31.43;;;4.90;99.90;;;;;;4210522;28;20257;-64
2022/10/16 06:28:44;;;;;;;77.30;31.90;;;5.10;99.90;;;;;;4199132;28;20327;-62
2022/10/16 06:30:46;;;;;;;72.63;28.77;;;5.20;99.90;;;;;;4193451;28;20269;-62
2022/10/16 06:32:47;;;;;;;74.90;29.03;;;5.30;99.90;;;;;;4192582;28;20274;-61
2022/10/16 06:34:48;;;;;;;76.37;26.60;;;5.40;99.90;;;;;;4197200;28;20036;-60
2022/10/16 06:36:49;;;;;;;64.93;25.47;;;5.40;99.90;;;;;;4210432;28;20028;-64
2022/10/16 06:38:50;;;;;;;58.70;26.20;;;5.50;99.90;;;;;;4197277;28;20106;-62
2022/10/16 06:40:53;;;;;;;87.60;25.57;;;5.50;99.90;;;;;;4193738;28;20733;-61
2022/10/16 06:42:55;;;;;;;127.50;24.30;;;5.60;99.90;;;;;;4193808;28;20079;-62
2022/10/16 06:44:56;;;;;;;138.30;29.20;;;5.50;99.90;;;;;;4193194;28;20093;-61
2022/10/16 06:46:57;;;;;;;67.37;23.30;;;5.40;99.90;;;;;;4194493;28;20101;-61
2022/10/16 06:48:58;;;;;;;86.70;23.57;;;5.30;99.90;;;;;;4174839;28;20730;-62
2022/10/16 06:51:04;;;;;;;258.97;35.03;;;5.30;99.90;;;;;;4194282;28;20036;-61
2022/10/16 06:53:05;;;;;;;132.90;24.73;;;5.20;99.90;;;;;;4192845;28;20032;-61
2022/10/16 06:55:06;;;;;;;50.40;21.73;;;5.20;99.90;;;;;;4193957;28;20063;-62
2022/10/16 06:57:07;;;;;;;66.23;22.47;;;5.20;99.90;;;;;;4193491;28;20097;-61
2022/10/16 06:59:09;;;;;;;73.27;19.83;;;5.30;99.90;;;;;;4194026;28;20054;-62
2022/10/16 07:01:11;;;;;;;147.27;23.10;;;5.30;99.90;;;;;;4194216;28;20090;-61
2022/10/16 07:03:13;;;;;;;83.83;20.23;;;5.30;99.90;;;;;;4192580;28;20483;-62
2022/10/16 07:05:14;;;;;;;185.73;23.27;;;5.30;99.90;;;;;;4194255;28;20021;-62
2022/10/16 07:07:15;;;;;;;210.83;24.43;;;5.30;99.90;;;;;;4208470;28;20024;-62
2022/10/16 07:09:16;;;;;;;168.00;22.33;;;5.30;99.90;;;;;;4210250;28;20028;-63
2022/10/16 07:11:20;;;;;;;50.33;19.40;;;5.30;99.90;;;;;;4201160;28;20114;-61
2022/10/16 07:13:21;;;;;;;172.23;22.63;;;5.40;99.90;;;;;;4194711;28;20078;-61
2022/10/16 07:15:23;;;;;;;55.40;20.27;;;5.40;99.90;;;;;;4203125;28;20047;-61
2022/10/16 07:17:24;;;;;;;69.67;23.80;;;5.40;99.90;;;;;;4211395;28;20403;-62
2022/10/16 07:19:25;;;;;;;43.07;21.57;;;5.50;99.90;;;;;;4208675;28;20058;-61
2022/10/16 07:21:35;;;;;;;58.60;22.47;;;5.60;99.90;;;;;;4201937;28;20446;-64
2022/10/16 07:23:36;;;;;;;67.80;22.07;;;5.90;99.90;;;;;;4193575;28;20028;-64
2022/10/16 07:25:37;;;;;;;44.20;22.17;;;6.00;99.90;;;;;;4194124;28;20033;-64
2022/10/16 07:27:38;;;;;;;32.63;19.50;;;6.00;99.90;;;;;;4193771;28;20097;-63
2022/10/16 07:29:40;;;;;;;68.47;24.17;;;6.00;99.90;;;;;;4193549;28;20206;-64
2022/10/16 07:31:41;;;;;;;49.57;22.50;;;6.10;99.90;;;;;;4194059;28;20090;-63
2022/10/16 07:33:44;;;;;;;53.90;21.53;;;6.10;99.90;;;;;;4193471;28;20033;-65
2022/10/16 07:35:54;;;;;;;95.87;24.53;;;6.20;99.90;;;;;;4194292;28;20021;-65
2022/10/16 07:37:55;;;;;;;65.63;23.05;;;6.20;99.90;;;;;;4196410;28;20032;-63
2022/10/16 07:39:56;;;;;;;70.30;23.23;;;6.10;99.90;;;;;;4193911;28;20480;-63
2022/10/16 07:41:58;;;;;;;62.10;22.43;;;6.10;99.90;;;;;;4193209;28;20086;-63
2022/10/16 07:44:00;;;;;;;60.67;21.57;;;6.20;99.90;;;;;;4193563;28;20403;-62
2022/10/16 07:46:01;;;;;;;67.87;23.27;;;6.30;99.90;;;;;;4192678;28;20058;-63
2022/10/16 07:48:03;;;;;;;41.87;22.70;;;6.30;99.90;;;;;;4194242;28;20105;-65
2022/10/16 07:50:04;;;;;;;44.47;23.53;;;6.30;99.90;;;;;;4192844;28;20427;-63
2022/10/16 07:52:05;;;;;;;34.90;21.10;;;6.40;99.90;;;;;;4194126;28;20098;-63
2022/10/16 07:54:08;;;;;;;39.97;20.03;;;6.50;99.90;;;;;;4192854;28;20032;-63
2022/10/16 07:56:11;;;;;;;51.93;21.63;;;6.60;99.90;;;;;;4194029;28;20468;-62
2022/10/16 07:58:12;;;;;;;53.67;20.50;;;6.60;99.90;;;;;;4192750;28;20032;-66
2022/10/16 08:00:13;;;;;;;59.70;20.83;;;6.70;99.90;;;;;;4194246;28;20082;-65
2022/10/16 08:02:14;;;;;;;47.63;23.00;;;6.60;99.90;;;;;;4192831;28;20186;-64
2022/10/16 08:04:16;;;;;;;60.77;23.00;;;6.60;99.90;;;;;;4193443;28;20032;-63
2022/10/16 08:06:18;;;;;;;44.87;23.33;;;6.70;99.90;;;;;;4202118;28;20078;-65
2022/10/16 08:08:20;;;;;;;40.60;21.70;;;6.80;99.90;;;;;;4209864;28;20020;-64
2022/10/16 08:10:23;;;;;;;46.80;24.20;;;6.90;99.90;;;;;;4210532;28;20032;-67
2022/10/16 08:12:25;;;;;;;51.57;24.80;;;7.00;99.90;;;;;;4198232;28;20434;-63
2022/10/16 08:14:26;;;;;;;51.53;24.90;;;7.10;99.90;;;;;;4194197;28;20086;-63
2022/10/16 08:16:28;;;;;;;48.60;24.13;;;7.30;99.90;;;;;;4182564;28;20067;-64
2022/10/16 08:18:29;;;;;;;50.50;25.13;;;7.50;99.90;;;;;;4193751;28;20110;-64
2022/10/16 08:20:33;;;;;;;38.53;19.93;;;7.50;99.90;;;;;;4192980;28;20484;-64
2022/10/16 08:22:34;;;;;;;34.90;19.67;;;7.60;99.90;;;;;;4196873;28;20450;-63
2022/10/16 08:24:36;;;;;;;30.90;16.83;;;7.70;99.90;;;;;;4177907;28;20113;-63
2022/10/16 08:26:37;;;;;;;28.43;17.80;;;7.70;99.90;;;;;;4196935;28;20102;-65
2022/10/16 08:28:39;;;;;;;28.90;16.97;;;7.80;99.90;;;;;;4194760;28;20101;-63
2022/10/16 08:30:40;;;;;;;28.43;16.47;;;7.80;99.90;;;;;;4196100;28;20037;-64
2022/10/16 08:32:42;;;;;;;32.30;16.77;;;7.70;99.90;;;;;;4195427;28;20036;-63
2022/10/16 08:34:43;;;;;;;29.03;17.53;;;7.70;99.90;;;;;;4196326;28;20032;-62
2022/10/16 08:36:44;;;;;;;30.10;17.53;;;7.80;99.90;;;;;;4195093;28;20048;-61
2022/10/16 08:38:49;;;;;;;35.60;18.13;;;7.90;99.90;;;;;;4204731;28;20435;-64
2022/10/16 08:40:50;;;;;;;34.03;17.93;;;7.90;99.90;;;;;;4193922;28;20405;-63
2022/10/16 08:42:57;;;;;;;29.23;16.47;;;8.00;99.90;;;;;;4211970;28;20036;-63
2022/10/16 08:44:58;;;;;;;30.13;17.13;;;8.00;99.90;;;;;;4213262;28;20479;-64
2022/10/16 08:47:10;;;;;;;33.20;17.80;;;8.10;99.90;;;;;;4211768;28;20426;-63
2022/10/16 08:49:15;;;;;;;28.97;16.87;;;8.20;99.90;;;;;;4213331;28;20534;-64
2022/10/16 08:51:35;;;;;;;50.27;17.23;;;8.20;99.90;;;;;;4211464;28;20036;-65
2022/10/16 08:53:48;;;;;;;27.97;15.37;;;8.10;99.90;;;;;;4212034;28;20070;-63
2022/10/16 08:55:52;;;;;;;43.90;16.63;;;8.10;99.90;;;;;;4211899;28;20032;-63
2022/10/16 08:57:53;;;;;;;27.60;15.87;;;8.00;99.90;;;;;;4212862;28;20048;-62
2022/10/16 09:00:00;;;;;;;32.10;18.40;;;8.10;99.90;;;;;;4212554;28;20410;-63
2022/10/16 09:02:01;;;;;;;32.63;20.50;;;8.10;99.90;;;;;;4212862;28;20040;-64
2022/10/16 09:04:30;;;;;;;32.53;19.90;;;8.10;99.90;;;;;;4211529;28;20057;-64
2022/10/16 09:06:44;;;;;;;35.27;19.10;;;8.20;99.90;;;;;;4212774;28;20032;-65
2022/10/16 09:09:03;;;;;;;34.90;20.10;;;8.20;99.90;;;;;;4210788;28;20032;-63
2022/10/16 09:11:25;;;;;;;36.83;21.53;;;8.20;99.90;;;;;;4212456;28;20357;-63
2022/10/16 09:14:20;;;;;;;35.50;20.80;;;8.30;99.90;;;;;;4212358;28;20241;-64
2022/10/16 09:16:29;;;;;;;34.37;20.00;;;8.40;99.90;;;;;;4143195;28;20379;-64
2022/10/16 09:18:48;;;;;;;33.50;19.50;;;8.40;99.90;;;;;;4144880;28;20477;-63
2022/10/16 09:21:14;;;;;;;30.73;19.73;;;8.50;99.90;;;;;;4153043;28;20376;-63
2022/10/16 09:23:26;;;;;;;41.97;21.93;;;8.50;99.90;;;;;;4193827;28;20048;-64
2022/10/16 09:25:28;;;;;;;34.50;20.73;;;8.40;99.90;;;;;;4211668;28;20054;-64
2022/10/16 09:27:30;;;;;;;34.57;20.67;;;8.50;99.90;;;;;;4193847;28;20036;-64
2022/10/16 09:29:31;;;;;;;33.30;19.00;;;8.50;99.90;;;;;;4203897;28;20033;-64
2022/10/16 09:31:35;;;;;;;33.03;20.60;;;8.50;99.90;;;;;;4196160;28;20549;-63
2022/10/16 09:33:39;;;;;;;36.67;21.27;;;8.50;99.90;;;;;;4193712;28;20082;-62
2022/10/16 09:35:47;;;;;;;32.53;20.30;;;8.70;99.90;;;;;;4194759;28;20440;-63
2022/10/16 09:37:54;;;;;;;32.33;20.37;;;8.80;99.90;;;;;;4194545;28;20464;-63
2022/10/16 09:39:55;;;;;;;30.80;19.83;;;9.00;99.90;;;;;;4194844;28;20032;-63
2022/10/16 09:41:56;;;;;;;32.57;19.37;;;9.10;99.90;;;;;;4192827;28;20098;-63
2022/10/16 09:44:01;;;;;;;37.40;20.60;;;9.10;99.90;;;;;;4194488;28;20033;-66
2022/10/16 09:46:30;;;;;;;37.27;19.83;;;9.20;99.90;;;;;;4194932;28;20464;-63
2022/10/16 09:48:43;;;;;;;31.70;19.20;;;9.30;99.90;;;;;;4191611;28;20036;-63
2022/10/16 09:50:55;;;;;;;30.33;19.87;;;9.50;99.90;;;;;;4194230;28;20101;-63
2022/10/16 09:53:10;;;;;;;31.67;19.03;;;9.60;99.90;;;;;;4194938;28;20086;-63
2022/10/16 09:55:17;;;;;;;30.10;19.17;;;9.70;99.90;;;;;;4193984;28;20036;-63
2022/10/16 09:57:19;;;;;;;30.47;18.87;;;9.80;99.90;;;;;;4194102;28;20539;-66
2022/10/16 09:59:26;;;;;;;32.00;19.23;;;9.90;99.90;;;;;;4194352;28;20029;-64
2022/10/16 10:01:42;;;;;;;29.83;18.30;;;9.90;99.90;;;;;;4195082;28;20036;-66
2022/10/16 10:03:45;;;;;;;27.40;17.87;;;10.00;99.90;;;;;;4193187;28;20121;-64
2022/10/16 10:05:48;;;;;;;29.23;19.77;;;10.00;99.90;;;;;;4194645;28;20534;-64
2022/10/16 10:07:58;;;;;;;27.90;18.30;;;10.20;99.90;;;;;;4194064;28;20530;-64
2022/10/16 10:10:02;;;;;;;25.83;16.90;;;10.30;99.90;;;;;;4194550;28;20040;-63
2022/10/16 10:12:05;;;;;;;33.20;18.10;;;10.40;99.90;;;;;;4193046;28;20405;-64
2022/10/16 10:14:17;;;;;;;26.97;17.53;;;10.60;99.90;;;;;;4193329;28;20082;-64
2022/10/16 10:16:24;;;;;;;30.00;17.70;;;10.70;99.90;;;;;;4193226;28;20040;-64
2022/10/16 10:18:26;;;;;;;26.50;17.47;;;10.70;99.90;;;;;;4194234;28;20047;-64
2022/10/16 10:20:34;;;;;;;27.30;17.53;;;10.70;99.90;;;;;;4193448;28;20029;-64
2022/10/16 10:22:38;;;;;;;25.60;18.07;;;10.90;99.90;;;;;;4194184;28;20028;-65
2022/10/16 10:24:39;;;;;;;26.10;16.57;;;11.00;99.90;;;;;;4194737;28;20079;-65
2022/10/16 10:27:09;;;;;;;29.63;17.73;;;11.20;99.90;;;;;;4193813;28;20029;-64
2022/10/16 10:29:38;;;;;;;27.45;18.35;;;11.40;99.90;;;;;;4184856;28;20110;-64
2022/10/16 10:32:12;;;;;;;23.83;16.90;;;11.50;99.90;;;;;;4149308;28;20029;-65
2022/10/16 10:34:38;;;;;;;25.97;17.50;;;11.60;99.90;;;;;;4193543;28;20078;-64
2022/10/16 10:36:41;;;;;;;27.23;18.13;;;11.80;99.90;;;;;;4194968;28;20036;-65
2022/10/16 10:38:56;;;;;;;28.17;17.57;;;11.90;99.90;;;;;;4193886;28;20024;-64